sensor_id;sensor_type;location;lat;lon;timestamp;P1;durP1;ratioP1;P2;durP2;ratioP2
51925;SDS011;37952;51.938;15.480;2023-09-08T00:03:00;3.70;;;3.50;;
51925;SDS011;37952;51.938;15.480;2023-09-08T00:06:03;4.70;;;4.20;;
51925;SDS011;37952;51.938;15.480;2023-09-08T00:09:07;4.40;;;4.20;;
51925;SDS011;37952;51.938;15.480;2023-09-08T00:12:10;4.70;;;4.30;;
51925;SDS011;37952;51.938;15.480;2023-09-08T00:15:13;5.30;;;4.20;;
51925;SDS011;37952;51.938;15.480;2023-09-08T00:18:16;4.60;;;4.30;;
51925;SDS011;37952;51.938;15.480;2023-09-08T00:21:19;5.10;;;4.70;;
51925;SDS011;37952;51.938;15.480;2023-09-08T00:24:22;4.20;;;3.90;;
51925;SDS011;37952;51.938;15.480;2023-09-08T00:27:25;5.60;;;4.20;;
51925;SDS011;37952;51.938;15.480;2023-09-08T00:30:27;4.20;;;4.00;;
51925;SDS011;37952;51.938;15.480;2023-09-08T00:33:30;4.80;;;4.50;;
51925;SDS011;37952;51.938;15.480;2023-09-08T00:36:33;4.80;;;4.10;;
51925;SDS011;37952;51.938;15.480;2023-09-08T00:39:37;8.80;;;5.20;;
51925;SDS011;37952;51.938;15.480;2023-09-08T00:42:40;4.60;;;4.20;;
51925;SDS011;37952;51.938;15.480;2023-09-08T00:45:43;4.90;;;4.60;;
51925;SDS011;37952;51.938;15.480;2023-09-08T00:48:48;4.60;;;4.30;;
51925;SDS011;37952;51.938;15.480;2023-09-08T00:51:51;4.60;;;4.40;;
51925;SDS011;37952;51.938;15.480;2023-09-08T00:54:54;6.10;;;4.60;;
51925;SDS011;37952;51.938;15.480;2023-09-08T00:57:58;5.20;;;4.90;;
51925;SDS011;37952;51.938;15.480;2023-09-08T01:01:02;5.10;;;4.60;;
51925;SDS011;37952;51.938;15.480;2023-09-08T01:04:05;5.80;;;5.30;;
51925;SDS011;37952;51.938;15.480;2023-09-08T01:07:08;6.80;;;4.70;;
51925;SDS011;37952;51.938;15.480;2023-09-08T01:10:12;4.80;;;4.40;;
51925;SDS011;37952;51.938;15.480;2023-09-08T01:13:16;5.20;;;4.80;;
51925;SDS011;37952;51.938;15.480;2023-09-08T01:16:18;5.10;;;4.80;;
51925;SDS011;37952;51.938;15.480;2023-09-08T01:19:21;5.30;;;4.80;;
51925;SDS011;37952;51.938;15.480;2023-09-08T01:22:30;4.90;;;4.30;;
51925;SDS011;37952;51.938;15.480;2023-09-08T01:29:02;6.00;;;4.90;;
51925;SDS011;37952;51.938;15.480;2023-09-08T01:32:08;5.10;;;4.40;;
51925;SDS011;37952;51.938;15.480;2023-09-08T01:35:11;5.30;;;4.80;;
51925;SDS011;37952;51.938;15.480;2023-09-08T01:38:15;5.00;;;4.70;;
51925;SDS011;37952;51.938;15.480;2023-09-08T01:41:18;4.40;;;4.20;;
51925;SDS011;37952;51.938;15.480;2023-09-08T01:44:21;5.30;;;4.90;;
51925;SDS011;37952;51.938;15.480;2023-09-08T01:47:24;10.50;;;4.90;;
51925;SDS011;37952;51.938;15.480;2023-09-08T01:50:28;7.70;;;4.80;;
51925;SDS011;37952;51.938;15.480;2023-09-08T01:53:31;5.00;;;4.80;;
51925;SDS011;37952;51.938;15.480;2023-09-08T01:56:33;5.50;;;5.00;;
51925;SDS011;37952;51.938;15.480;2023-09-08T01:59:36;6.20;;;5.00;;
51925;SDS011;37952;51.938;15.480;2023-09-08T02:02:39;5.40;;;5.10;;
51925;SDS011;37952;51.938;15.480;2023-09-08T02:05:43;5.70;;;5.00;;
51925;SDS011;37952;51.938;15.480;2023-09-08T02:08:47;6.90;;;5.10;;
51925;SDS011;37952;51.938;15.480;2023-09-08T02:11:49;5.30;;;4.80;;
51925;SDS011;37952;51.938;15.480;2023-09-08T02:14:52;5.40;;;5.10;;
51925;SDS011;37952;51.938;15.480;2023-09-08T02:17:55;6.00;;;5.60;;
51925;SDS011;37952;51.938;15.480;2023-09-08T02:20:59;7.00;;;5.80;;
51925;SDS011;37952;51.938;15.480;2023-09-08T02:24:02;6.10;;;5.70;;
51925;SDS011;37952;51.938;15.480;2023-09-08T02:27:05;5.70;;;5.10;;
51925;SDS011;37952;51.938;15.480;2023-09-08T02:30:08;5.30;;;4.90;;
51925;SDS011;37952;51.938;15.480;2023-09-08T02:33:11;5.60;;;5.20;;
51925;SDS011;37952;51.938;15.480;2023-09-08T02:36:14;6.20;;;5.60;;
51925;SDS011;37952;51.938;15.480;2023-09-08T02:39:17;6.00;;;5.50;;
51925;SDS011;37952;51.938;15.480;2023-09-08T02:42:20;5.70;;;5.30;;
51925;SDS011;37952;51.938;15.480;2023-09-08T02:45:23;5.80;;;5.30;;
51925;SDS011;37952;51.938;15.480;2023-09-08T02:48:26;5.40;;;5.10;;
51925;SDS011;37952;51.938;15.480;2023-09-08T02:51:29;6.10;;;5.50;;
51925;SDS011;37952;51.938;15.480;2023-09-08T02:54:31;6.00;;;5.60;;
51925;SDS011;37952;51.938;15.480;2023-09-08T02:57:34;5.70;;;5.10;;
51925;SDS011;37952;51.938;15.480;2023-09-08T03:00:37;5.90;;;5.00;;
51925;SDS011;37952;51.938;15.480;2023-09-08T03:03:43;5.60;;;5.10;;
51925;SDS011;37952;51.938;15.480;2023-09-08T03:06:46;5.90;;;5.50;;
51925;SDS011;37952;51.938;15.480;2023-09-08T03:09:49;7.20;;;5.30;;
51925;SDS011;37952;51.938;15.480;2023-09-08T03:12:52;5.50;;;5.10;;
51925;SDS011;37952;51.938;15.480;2023-09-08T03:15:55;6.70;;;5.80;;
51925;SDS011;37952;51.938;15.480;2023-09-08T03:18:58;5.80;;;5.40;;
51925;SDS011;37952;51.938;15.480;2023-09-08T03:22:01;5.50;;;5.20;;
51925;SDS011;37952;51.938;15.480;2023-09-08T03:25:04;6.20;;;5.70;;
51925;SDS011;37952;51.938;15.480;2023-09-08T03:28:08;6.10;;;5.50;;
51925;SDS011;37952;51.938;15.480;2023-09-08T03:31:11;6.50;;;6.00;;
51925;SDS011;37952;51.938;15.480;2023-09-08T03:34:14;5.40;;;5.10;;
51925;SDS011;37952;51.938;15.480;2023-09-08T03:37:17;5.90;;;5.40;;
51925;SDS011;37952;51.938;15.480;2023-09-08T03:40:20;6.10;;;5.40;;
51925;SDS011;37952;51.938;15.480;2023-09-08T03:43:23;6.10;;;5.70;;
51925;SDS011;37952;51.938;15.480;2023-09-08T03:46:26;6.20;;;5.60;;
51925;SDS011;37952;51.938;15.480;2023-09-08T03:49:29;5.90;;;5.50;;
51925;SDS011;37952;51.938;15.480;2023-09-08T03:52:32;6.40;;;5.80;;
51925;SDS011;37952;51.938;15.480;2023-09-08T03:55:35;6.60;;;5.70;;
51925;SDS011;37952;51.938;15.480;2023-09-08T03:58:38;6.40;;;6.00;;
51925;SDS011;37952;51.938;15.480;2023-09-08T04:01:40;6.00;;;5.70;;
51925;SDS011;37952;51.938;15.480;2023-09-08T04:04:43;6.40;;;6.00;;
51925;SDS011;37952;51.938;15.480;2023-09-08T04:07:46;6.20;;;5.80;;
51925;SDS011;37952;51.938;15.480;2023-09-08T04:10:49;6.10;;;5.70;;
51925;SDS011;37952;51.938;15.480;2023-09-08T04:13:52;9.50;;;6.30;;
51925;SDS011;37952;51.938;15.480;2023-09-08T04:16:55;6.90;;;6.20;;
51925;SDS011;37952;51.938;15.480;2023-09-08T04:19:58;6.90;;;6.40;;
51925;SDS011;37952;51.938;15.480;2023-09-08T04:23:00;7.00;;;6.50;;
51925;SDS011;37952;51.938;15.480;2023-09-08T04:26:03;6.80;;;6.30;;
51925;SDS011;37952;51.938;15.480;2023-09-08T04:29:07;7.30;;;6.70;;
51925;SDS011;37952;51.938;15.480;2023-09-08T04:32:09;6.70;;;6.30;;
51925;SDS011;37952;51.938;15.480;2023-09-08T04:35:12;9.10;;;6.50;;
51925;SDS011;37952;51.938;15.480;2023-09-08T04:38:15;6.90;;;6.40;;
51925;SDS011;37952;51.938;15.480;2023-09-08T04:41:18;6.80;;;6.30;;
51925;SDS011;37952;51.938;15.480;2023-09-08T04:44:21;6.60;;;6.20;;
51925;SDS011;37952;51.938;15.480;2023-09-08T04:47:23;7.10;;;6.50;;
51925;SDS011;37952;51.938;15.480;2023-09-08T04:50:26;6.60;;;6.00;;
51925;SDS011;37952;51.938;15.480;2023-09-08T04:53:29;6.40;;;5.80;;
51925;SDS011;37952;51.938;15.480;2023-09-08T04:56:32;6.60;;;6.00;;
51925;SDS011;37952;51.938;15.480;2023-09-08T04:59:35;7.00;;;6.10;;
51925;SDS011;37952;51.938;15.480;2023-09-08T05:02:39;6.80;;;6.30;;
51925;SDS011;37952;51.938;15.480;2023-09-08T05:05:42;13.80;;;6.20;;
51925;SDS011;37952;51.938;15.480;2023-09-08T05:08:45;6.40;;;5.90;;
51925;SDS011;37952;51.938;15.480;2023-09-08T05:11:48;6.00;;;5.60;;
51925;SDS011;37952;51.938;15.480;2023-09-08T05:14:52;7.00;;;6.40;;
51925;SDS011;37952;51.938;15.480;2023-09-08T05:17:59;6.60;;;6.10;;
51925;SDS011;37952;51.938;15.480;2023-09-08T05:21:03;6.70;;;6.00;;
51925;SDS011;37952;51.938;15.480;2023-09-08T05:24:06;10.20;;;6.00;;
51925;SDS011;37952;51.938;15.480;2023-09-08T05:27:09;6.30;;;5.90;;
51925;SDS011;37952;51.938;15.480;2023-09-08T05:30:12;7.30;;;6.70;;
51925;SDS011;37952;51.938;15.480;2023-09-08T05:33:15;7.40;;;6.80;;
51925;SDS011;37952;51.938;15.480;2023-09-08T05:36:18;8.00;;;7.10;;
51925;SDS011;37952;51.938;15.480;2023-09-08T05:39:21;9.00;;;7.30;;
51925;SDS011;37952;51.938;15.480;2023-09-08T05:42:24;9.60;;;7.00;;
51925;SDS011;37952;51.938;15.480;2023-09-08T05:45:27;7.70;;;7.00;;
51925;SDS011;37952;51.938;15.480;2023-09-08T05:48:30;9.40;;;7.50;;
51925;SDS011;37952;51.938;15.480;2023-09-08T05:51:33;8.30;;;7.30;;
51925;SDS011;37952;51.938;15.480;2023-09-08T05:54:36;8.90;;;7.70;;
51925;SDS011;37952;51.938;15.480;2023-09-08T05:57:39;8.30;;;7.50;;
51925;SDS011;37952;51.938;15.480;2023-09-08T06:00:43;8.40;;;7.10;;
51925;SDS011;37952;51.938;15.480;2023-09-08T06:03:46;8.40;;;7.30;;
51925;SDS011;37952;51.938;15.480;2023-09-08T06:06:49;7.80;;;7.10;;
51925;SDS011;37952;51.938;15.480;2023-09-08T06:09:51;11.00;;;7.10;;
51925;SDS011;37952;51.938;15.480;2023-09-08T06:12:54;10.10;;;6.60;;
51925;SDS011;37952;51.938;15.480;2023-09-08T06:15:57;11.10;;;7.30;;
51925;SDS011;37952;51.938;15.480;2023-09-08T06:19:00;7.90;;;7.00;;
51925;SDS011;37952;51.938;15.480;2023-09-08T06:22:05;7.50;;;6.80;;
51925;SDS011;37952;51.938;15.480;2023-09-08T06:25:08;8.90;;;6.40;;
51925;SDS011;37952;51.938;15.480;2023-09-08T06:28:11;6.00;;;5.60;;
51925;SDS011;37952;51.938;15.480;2023-09-08T06:31:14;10.00;;;6.70;;
51925;SDS011;37952;51.938;15.480;2023-09-08T06:34:17;8.10;;;6.20;;
51925;SDS011;37952;51.938;15.480;2023-09-08T06:37:24;9.90;;;6.20;;
51925;SDS011;37952;51.938;15.480;2023-09-08T06:40:29;8.80;;;6.60;;
51925;SDS011;37952;51.938;15.480;2023-09-08T06:43:32;7.30;;;6.30;;
51925;SDS011;37952;51.938;15.480;2023-09-08T06:46:34;8.50;;;6.70;;
51925;SDS011;37952;51.938;15.480;2023-09-08T06:49:37;8.00;;;6.50;;
51925;SDS011;37952;51.938;15.480;2023-09-08T06:52:40;6.80;;;6.30;;
51925;SDS011;37952;51.938;15.480;2023-09-08T06:55:43;9.40;;;6.60;;
51925;SDS011;37952;51.938;15.480;2023-09-08T06:58:47;7.40;;;6.70;;
51925;SDS011;37952;51.938;15.480;2023-09-08T07:01:50;7.10;;;6.60;;
51925;SDS011;37952;51.938;15.480;2023-09-08T07:04:53;7.30;;;6.60;;
51925;SDS011;37952;51.938;15.480;2023-09-08T07:07:56;6.70;;;6.10;;
51925;SDS011;37952;51.938;15.480;2023-09-08T07:10:59;8.10;;;6.40;;
51925;SDS011;37952;51.938;15.480;2023-09-08T07:14:02;6.90;;;6.30;;
51925;SDS011;37952;51.938;15.480;2023-09-08T07:17:05;8.20;;;7.40;;
51925;SDS011;37952;51.938;15.480;2023-09-08T07:20:08;9.30;;;6.90;;
51925;SDS011;37952;51.938;15.480;2023-09-08T07:23:11;8.10;;;6.90;;
51925;SDS011;37952;51.938;15.480;2023-09-08T07:26:14;6.90;;;6.40;;
51925;SDS011;37952;51.938;15.480;2023-09-08T07:29:17;6.50;;;5.90;;
51925;SDS011;37952;51.938;15.480;2023-09-08T07:32:20;7.40;;;6.80;;
51925;SDS011;37952;51.938;15.480;2023-09-08T07:35:23;6.70;;;6.00;;
51925;SDS011;37952;51.938;15.480;2023-09-08T07:38:26;7.10;;;5.90;;
51925;SDS011;37952;51.938;15.480;2023-09-08T07:41:29;5.70;;;5.40;;
51925;SDS011;37952;51.938;15.480;2023-09-08T07:44:32;6.60;;;6.20;;
51925;SDS011;37952;51.938;15.480;2023-09-08T07:47:36;5.70;;;5.30;;
51925;SDS011;37952;51.938;15.480;2023-09-08T07:50:41;8.10;;;5.00;;
51925;SDS011;37952;51.938;15.480;2023-09-08T07:53:43;5.30;;;4.70;;
51925;SDS011;37952;51.938;15.480;2023-09-08T07:56:46;5.30;;;4.90;;
51925;SDS011;37952;51.938;15.480;2023-09-08T07:59:53;5.20;;;4.90;;
51925;SDS011;37952;51.938;15.480;2023-09-08T08:02:56;5.60;;;5.00;;
51925;SDS011;37952;51.938;15.480;2023-09-08T08:06:01;5.00;;;4.60;;
51925;SDS011;37952;51.938;15.480;2023-09-08T08:09:04;5.70;;;5.20;;
51925;SDS011;37952;51.938;15.480;2023-09-08T08:12:07;5.70;;;5.20;;
51925;SDS011;37952;51.938;15.480;2023-09-08T08:15:10;4.50;;;4.20;;
51925;SDS011;37952;51.938;15.480;2023-09-08T08:18:13;5.20;;;4.30;;
51925;SDS011;37952;51.938;15.480;2023-09-08T08:21:17;4.80;;;4.60;;
51925;SDS011;37952;51.938;15.480;2023-09-08T08:24:19;5.10;;;4.80;;
51925;SDS011;37952;51.938;15.480;2023-09-08T08:30:33;6.80;;;5.00;;
51925;SDS011;37952;51.938;15.480;2023-09-08T08:33:38;7.10;;;5.40;;
51925;SDS011;37952;51.938;15.480;2023-09-08T08:36:41;5.60;;;5.10;;
51925;SDS011;37952;51.938;15.480;2023-09-08T08:39:44;7.50;;;5.00;;
51925;SDS011;37952;51.938;15.480;2023-09-08T08:42:46;7.30;;;4.20;;
51925;SDS011;37952;51.938;15.480;2023-09-08T08:45:57;5.90;;;4.70;;
51925;SDS011;37952;51.938;15.480;2023-09-08T08:49:02;4.70;;;4.40;;
51925;SDS011;37952;51.938;15.480;2023-09-08T08:52:06;5.50;;;5.20;;
51925;SDS011;37952;51.938;15.480;2023-09-08T08:55:11;7.40;;;5.20;;
51925;SDS011;37952;51.938;15.480;2023-09-08T08:58:14;5.50;;;5.10;;
51925;SDS011;37952;51.938;15.480;2023-09-08T09:01:17;5.70;;;5.30;;
51925;SDS011;37952;51.938;15.480;2023-09-08T09:04:22;5.80;;;5.40;;
51925;SDS011;37952;51.938;15.480;2023-09-08T09:07:27;5.00;;;4.80;;
51925;SDS011;37952;51.938;15.480;2023-09-08T09:10:31;4.90;;;4.60;;
51925;SDS011;37952;51.938;15.480;2023-09-08T09:13:34;6.10;;;5.60;;
51925;SDS011;37952;51.938;15.480;2023-09-08T09:16:40;5.20;;;4.70;;
51925;SDS011;37952;51.938;15.480;2023-09-08T09:19:43;4.90;;;4.60;;
51925;SDS011;37952;51.938;15.480;2023-09-08T09:22:47;4.90;;;4.60;;
51925;SDS011;37952;51.938;15.480;2023-09-08T09:25:51;5.90;;;5.10;;
51925;SDS011;37952;51.938;15.480;2023-09-08T09:28:54;4.90;;;4.60;;
51925;SDS011;37952;51.938;15.480;2023-09-08T09:32:01;5.20;;;4.90;;
51925;SDS011;37952;51.938;15.480;2023-09-08T09:38:13;7.50;;;5.00;;
51925;SDS011;37952;51.938;15.480;2023-09-08T09:41:17;4.90;;;4.70;;
51925;SDS011;37952;51.938;15.480;2023-09-08T09:44:19;4.80;;;4.50;;
51925;SDS011;37952;51.938;15.480;2023-09-08T09:47:24;4.70;;;4.40;;
51925;SDS011;37952;51.938;15.480;2023-09-08T09:50:28;5.50;;;4.80;;
51925;SDS011;37952;51.938;15.480;2023-09-08T09:53:38;5.10;;;4.60;;
51925;SDS011;37952;51.938;15.480;2023-09-08T09:56:45;4.90;;;4.30;;
51925;SDS011;37952;51.938;15.480;2023-09-08T09:59:55;5.20;;;4.80;;
51925;SDS011;37952;51.938;15.480;2023-09-08T10:03:00;5.00;;;4.60;;
51925;SDS011;37952;51.938;15.480;2023-09-08T10:06:04;7.10;;;5.40;;
51925;SDS011;37952;51.938;15.480;2023-09-08T10:09:07;5.20;;;4.90;;
51925;SDS011;37952;51.938;15.480;2023-09-08T10:12:21;4.90;;;4.50;;
51925;SDS011;37952;51.938;15.480;2023-09-08T10:15:25;4.80;;;4.50;;
51925;SDS011;37952;51.938;15.480;2023-09-08T10:18:29;4.60;;;4.10;;
51925;SDS011;37952;51.938;15.480;2023-09-08T10:21:39;4.50;;;4.20;;
51925;SDS011;37952;51.938;15.480;2023-09-08T10:24:46;4.90;;;4.10;;
51925;SDS011;37952;51.938;15.480;2023-09-08T10:27:52;4.50;;;4.20;;
51925;SDS011;37952;51.938;15.480;2023-09-08T10:30:56;5.20;;;4.20;;
51925;SDS011;37952;51.938;15.480;2023-09-08T10:34:00;5.00;;;4.40;;
51925;SDS011;37952;51.938;15.480;2023-09-08T10:37:18;5.70;;;4.60;;
51925;SDS011;37952;51.938;15.480;2023-09-08T10:40:25;8.10;;;5.00;;
51925;SDS011;37952;51.938;15.480;2023-09-08T10:43:36;5.40;;;5.00;;
51925;SDS011;37952;51.938;15.480;2023-09-08T10:46:40;5.60;;;5.00;;
51925;SDS011;37952;51.938;15.480;2023-09-08T10:49:42;5.00;;;4.60;;
51925;SDS011;37952;51.938;15.480;2023-09-08T10:53:07;5.40;;;4.10;;
51925;SDS011;37952;51.938;15.480;2023-09-08T10:56:13;5.00;;;4.60;;
51925;SDS011;37952;51.938;15.480;2023-09-08T10:59:19;4.60;;;4.20;;
51925;SDS011;37952;51.938;15.480;2023-09-08T11:02:41;5.40;;;4.50;;
51925;SDS011;37952;51.938;15.480;2023-09-08T11:05:50;4.70;;;4.30;;
51925;SDS011;37952;51.938;15.480;2023-09-08T11:08:53;4.60;;;4.10;;
51925;SDS011;37952;51.938;15.480;2023-09-08T11:12:00;3.90;;;3.70;;
51925;SDS011;37952;51.938;15.480;2023-09-08T11:15:06;3.80;;;3.20;;
51925;SDS011;37952;51.938;15.480;2023-09-08T11:18:11;3.70;;;3.10;;
51925;SDS011;37952;51.938;15.480;2023-09-08T11:21:14;3.30;;;3.20;;
51925;SDS011;37952;51.938;15.480;2023-09-08T11:24:17;3.70;;;3.40;;
51925;SDS011;37952;51.938;15.480;2023-09-08T11:27:21;3.60;;;3.10;;
51925;SDS011;37952;51.938;15.480;2023-09-08T11:30:24;3.40;;;3.20;;
51925;SDS011;37952;51.938;15.480;2023-09-08T11:33:32;3.40;;;3.20;;
51925;SDS011;37952;51.938;15.480;2023-09-08T11:36:36;4.40;;;3.10;;
51925;SDS011;37952;51.938;15.480;2023-09-08T11:39:39;3.50;;;3.30;;
51925;SDS011;37952;51.938;15.480;2023-09-08T11:42:43;3.30;;;3.10;;
51925;SDS011;37952;51.938;15.480;2023-09-08T11:45:47;3.70;;;3.40;;
51925;SDS011;37952;51.938;15.480;2023-09-08T11:48:51;5.30;;;3.10;;
51925;SDS011;37952;51.938;15.480;2023-09-08T11:51:54;2.90;;;2.70;;
51925;SDS011;37952;51.938;15.480;2023-09-08T11:55:01;6.40;;;3.20;;
51925;SDS011;37952;51.938;15.480;2023-09-08T11:58:09;3.40;;;3.20;;
51925;SDS011;37952;51.938;15.480;2023-09-08T12:01:12;3.30;;;3.00;;
51925;SDS011;37952;51.938;15.480;2023-09-08T12:04:18;3.60;;;3.30;;
51925;SDS011;37952;51.938;15.480;2023-09-08T12:10:26;3.00;;;2.90;;
51925;SDS011;37952;51.938;15.480;2023-09-08T12:13:29;3.40;;;3.20;;
51925;SDS011;37952;51.938;15.480;2023-09-08T12:16:31;3.00;;;2.80;;
51925;SDS011;37952;51.938;15.480;2023-09-08T12:19:34;3.00;;;2.80;;
51925;SDS011;37952;51.938;15.480;2023-09-08T12:22:47;3.30;;;3.10;;
51925;SDS011;37952;51.938;15.480;2023-09-08T12:25:53;3.10;;;3.00;;
51925;SDS011;37952;51.938;15.480;2023-09-08T12:28:56;3.10;;;2.90;;
51925;SDS011;37952;51.938;15.480;2023-09-08T12:31:59;3.80;;;3.10;;
51925;SDS011;37952;51.938;15.480;2023-09-08T12:35:02;3.20;;;3.00;;
51925;SDS011;37952;51.938;15.480;2023-09-08T12:38:06;3.40;;;3.10;;
51925;SDS011;37952;51.938;15.480;2023-09-08T12:41:10;3.20;;;3.00;;
51925;SDS011;37952;51.938;15.480;2023-09-08T12:44:13;3.90;;;3.70;;
51925;SDS011;37952;51.938;15.480;2023-09-08T12:47:15;3.60;;;3.30;;
51925;SDS011;37952;51.938;15.480;2023-09-08T12:50:18;3.50;;;3.30;;
51925;SDS011;37952;51.938;15.480;2023-09-08T12:53:21;3.30;;;3.20;;
51925;SDS011;37952;51.938;15.480;2023-09-08T12:56:26;3.40;;;3.20;;
51925;SDS011;37952;51.938;15.480;2023-09-08T12:59:28;3.50;;;3.20;;
51925;SDS011;37952;51.938;15.480;2023-09-08T13:02:31;3.30;;;3.00;;
51925;SDS011;37952;51.938;15.480;2023-09-08T13:05:35;3.10;;;2.90;;
51925;SDS011;37952;51.938;15.480;2023-09-08T13:08:38;4.10;;;3.70;;
51925;SDS011;37952;51.938;15.480;2023-09-08T13:11:41;3.00;;;2.90;;
51925;SDS011;37952;51.938;15.480;2023-09-08T13:14:45;3.60;;;3.40;;
51925;SDS011;37952;51.938;15.480;2023-09-08T13:17:48;3.70;;;3.50;;
51925;SDS011;37952;51.938;15.480;2023-09-08T13:20:50;3.30;;;3.10;;
51925;SDS011;37952;51.938;15.480;2023-09-08T13:23:53;3.70;;;3.40;;
51925;SDS011;37952;51.938;15.480;2023-09-08T13:26:56;3.60;;;3.00;;
51925;SDS011;37952;51.938;15.480;2023-09-08T13:30:34;3.20;;;3.00;;
51925;SDS011;37952;51.938;15.480;2023-09-08T13:33:29;3.00;;;2.90;;
51925;SDS011;37952;51.938;15.480;2023-09-08T13:36:32;3.70;;;3.50;;
51925;SDS011;37952;51.938;15.480;2023-09-08T13:39:36;4.40;;;2.80;;
51925;SDS011;37952;51.938;15.480;2023-09-08T13:42:39;3.50;;;3.30;;
51925;SDS011;37952;51.938;15.480;2023-09-08T13:45:41;3.60;;;3.30;;
51925;SDS011;37952;51.938;15.480;2023-09-08T13:48:45;3.70;;;3.50;;
51925;SDS011;37952;51.938;15.480;2023-09-08T13:51:50;3.30;;;3.10;;
51925;SDS011;37952;51.938;15.480;2023-09-08T13:54:59;3.20;;;3.00;;
51925;SDS011;37952;51.938;15.480;2023-09-08T13:58:21;3.10;;;2.90;;
51925;SDS011;37952;51.938;15.480;2023-09-08T14:01:28;3.30;;;3.10;;
51925;SDS011;37952;51.938;15.480;2023-09-08T14:07:41;2.90;;;2.70;;
51925;SDS011;37952;51.938;15.480;2023-09-08T14:10:49;3.20;;;2.30;;
51925;SDS011;37952;51.938;15.480;2023-09-08T14:14:05;3.30;;;3.10;;
51925;SDS011;37952;51.938;15.480;2023-09-08T14:17:08;2.90;;;2.80;;
51925;SDS011;37952;51.938;15.480;2023-09-08T14:20:11;4.30;;;3.10;;
51925;SDS011;37952;51.938;15.480;2023-09-08T14:23:14;3.30;;;3.10;;
51925;SDS011;37952;51.938;15.480;2023-09-08T14:26:17;3.40;;;3.20;;
51925;SDS011;37952;51.938;15.480;2023-09-08T14:29:21;3.70;;;3.50;;
51925;SDS011;37952;51.938;15.480;2023-09-08T14:32:25;3.50;;;3.30;;
51925;SDS011;37952;51.938;15.480;2023-09-08T14:35:27;4.40;;;3.60;;
51925;SDS011;37952;51.938;15.480;2023-09-08T14:38:30;4.60;;;3.40;;
51925;SDS011;37952;51.938;15.480;2023-09-08T14:41:33;3.60;;;3.40;;
51925;SDS011;37952;51.938;15.480;2023-09-08T14:44:36;4.00;;;3.50;;
51925;SDS011;37952;51.938;15.480;2023-09-08T14:47:39;3.50;;;3.30;;
51925;SDS011;37952;51.938;15.480;2023-09-08T14:50:42;6.00;;;3.20;;
51925;SDS011;37952;51.938;15.480;2023-09-08T14:53:45;3.00;;;2.90;;
51925;SDS011;37952;51.938;15.480;2023-09-08T14:56:48;4.40;;;2.90;;
51925;SDS011;37952;51.938;15.480;2023-09-08T14:59:51;3.60;;;3.40;;
51925;SDS011;37952;51.938;15.480;2023-09-08T15:02:56;4.10;;;3.20;;
51925;SDS011;37952;51.938;15.480;2023-09-08T15:06:00;3.60;;;3.00;;
51925;SDS011;37952;51.938;15.480;2023-09-08T15:09:03;3.50;;;3.20;;
51925;SDS011;37952;51.938;15.480;2023-09-08T15:12:06;3.80;;;3.20;;
51925;SDS011;37952;51.938;15.480;2023-09-08T15:15:09;3.50;;;3.20;;
51925;SDS011;37952;51.938;15.480;2023-09-08T15:18:12;3.70;;;3.50;;
51925;SDS011;37952;51.938;15.480;2023-09-08T15:21:15;3.50;;;3.20;;
51925;SDS011;37952;51.938;15.480;2023-09-08T15:24:18;3.40;;;3.10;;
51925;SDS011;37952;51.938;15.480;2023-09-08T15:27:21;3.80;;;3.20;;
51925;SDS011;37952;51.938;15.480;2023-09-08T15:30:24;3.60;;;3.30;;
51925;SDS011;37952;51.938;15.480;2023-09-08T15:33:26;5.00;;;2.80;;
51925;SDS011;37952;51.938;15.480;2023-09-08T15:36:29;3.60;;;3.30;;
51925;SDS011;37952;51.938;15.480;2023-09-08T15:39:32;2.80;;;2.70;;
51925;SDS011;37952;51.938;15.480;2023-09-08T15:42:35;3.30;;;3.10;;
51925;SDS011;37952;51.938;15.480;2023-09-08T15:45:38;3.20;;;2.90;;
51925;SDS011;37952;51.938;15.480;2023-09-08T15:48:41;3.60;;;3.00;;
51925;SDS011;37952;51.938;15.480;2023-09-08T15:51:44;3.20;;;3.00;;
51925;SDS011;37952;51.938;15.480;2023-09-08T15:54:49;3.50;;;3.20;;
51925;SDS011;37952;51.938;15.480;2023-09-08T15:57:52;3.20;;;3.00;;
51925;SDS011;37952;51.938;15.480;2023-09-08T16:00:55;3.40;;;3.10;;
51925;SDS011;37952;51.938;15.480;2023-09-08T16:03:58;11.30;;;3.20;;
51925;SDS011;37952;51.938;15.480;2023-09-08T16:07:01;3.30;;;3.10;;
51925;SDS011;37952;51.938;15.480;2023-09-08T16:10:04;3.80;;;3.00;;
51925;SDS011;37952;51.938;15.480;2023-09-08T16:13:07;5.60;;;3.30;;
51925;SDS011;37952;51.938;15.480;2023-09-08T16:16:10;3.80;;;3.10;;
51925;SDS011;37952;51.938;15.480;2023-09-08T16:19:13;4.80;;;3.20;;
51925;SDS011;37952;51.938;15.480;2023-09-08T16:22:16;3.70;;;3.40;;
51925;SDS011;37952;51.938;15.480;2023-09-08T16:25:18;3.60;;;3.40;;
51925;SDS011;37952;51.938;15.480;2023-09-08T16:28:21;3.50;;;3.30;;
51925;SDS011;37952;51.938;15.480;2023-09-08T16:31:25;3.80;;;3.50;;
51925;SDS011;37952;51.938;15.480;2023-09-08T16:34:28;3.30;;;3.10;;
51925;SDS011;37952;51.938;15.480;2023-09-08T16:37:31;3.50;;;3.20;;
51925;SDS011;37952;51.938;15.480;2023-09-08T16:40:34;3.60;;;3.40;;
51925;SDS011;37952;51.938;15.480;2023-09-08T16:43:37;5.00;;;3.40;;
51925;SDS011;37952;51.938;15.480;2023-09-08T16:46:40;3.70;;;3.40;;
51925;SDS011;37952;51.938;15.480;2023-09-08T16:49:43;4.10;;;3.80;;
51925;SDS011;37952;51.938;15.480;2023-09-08T16:52:46;4.00;;;3.60;;
51925;SDS011;37952;51.938;15.480;2023-09-08T16:55:48;4.00;;;3.40;;
51925;SDS011;37952;51.938;15.480;2023-09-08T16:58:51;5.60;;;3.30;;
51925;SDS011;37952;51.938;15.480;2023-09-08T17:01:54;4.20;;;3.80;;
51925;SDS011;37952;51.938;15.480;2023-09-08T17:04:57;4.40;;;4.00;;
51925;SDS011;37952;51.938;15.480;2023-09-08T17:08:00;3.60;;;3.40;;
51925;SDS011;37952;51.938;15.480;2023-09-08T17:11:03;3.80;;;3.50;;
51925;SDS011;37952;51.938;15.480;2023-09-08T17:14:07;4.20;;;3.90;;
51925;SDS011;37952;51.938;15.480;2023-09-08T17:17:09;5.20;;;4.20;;
51925;SDS011;37952;51.938;15.480;2023-09-08T17:20:12;5.00;;;4.30;;
51925;SDS011;37952;51.938;15.480;2023-09-08T17:23:15;4.70;;;4.30;;
51925;SDS011;37952;51.938;15.480;2023-09-08T17:26:18;4.40;;;4.00;;
51925;SDS011;37952;51.938;15.480;2023-09-08T17:29:21;4.20;;;4.00;;
51925;SDS011;37952;51.938;15.480;2023-09-08T17:32:23;4.30;;;4.00;;
51925;SDS011;37952;51.938;15.480;2023-09-08T17:35:26;4.80;;;4.50;;
51925;SDS011;37952;51.938;15.480;2023-09-08T17:38:29;6.90;;;4.10;;
51925;SDS011;37952;51.938;15.480;2023-09-08T17:41:34;4.80;;;4.40;;
51925;SDS011;37952;51.938;15.480;2023-09-08T17:44:37;4.00;;;3.70;;
51925;SDS011;37952;51.938;15.480;2023-09-08T17:47:40;5.20;;;4.40;;
51925;SDS011;37952;51.938;15.480;2023-09-08T17:50:43;5.00;;;4.70;;
51925;SDS011;37952;51.938;15.480;2023-09-08T17:53:46;8.90;;;4.90;;
51925;SDS011;37952;51.938;15.480;2023-09-08T17:56:50;6.60;;;5.00;;
51925;SDS011;37952;51.938;15.480;2023-09-08T17:59:52;4.80;;;4.40;;
51925;SDS011;37952;51.938;15.480;2023-09-08T18:02:55;6.20;;;4.90;;
51925;SDS011;37952;51.938;15.480;2023-09-08T18:05:58;6.00;;;5.50;;
51925;SDS011;37952;51.938;15.480;2023-09-08T18:09:01;5.30;;;4.80;;
51925;SDS011;37952;51.938;15.480;2023-09-08T18:12:04;5.10;;;4.60;;
51925;SDS011;37952;51.938;15.480;2023-09-08T18:15:07;4.80;;;4.50;;
51925;SDS011;37952;51.938;15.480;2023-09-08T18:18:11;4.70;;;4.40;;
51925;SDS011;37952;51.938;15.480;2023-09-08T18:21:14;8.20;;;4.80;;
51925;SDS011;37952;51.938;15.480;2023-09-08T18:24:17;5.20;;;4.20;;
51925;SDS011;37952;51.938;15.480;2023-09-08T18:27:19;4.90;;;4.40;;